createdAt,value
2018-03-28T00:01:59.934Z,69724.59
2018-03-28T00:04:28.422Z,69726.31
2018-03-28T00:06:56.742Z,69726.31
2018-03-28T00:09:25.086Z,69725.38
2018-03-28T00:11:53.409Z,69735.54
2018-03-28T00:14:21.827Z,69734.94
2018-03-28T00:16:50.142Z,69729.09
2018-03-28T00:19:18.489Z,69734.33
2018-03-28T00:21:46.873Z,69711.98
2018-03-28T00:24:15.147Z,69723.48
2018-03-28T00:26:45.537Z,69722.84
2018-03-28T00:29:13.958Z,69734.33
2018-03-28T00:31:42.277Z,69742.17
2018-03-28T00:34:10.625Z,69741.38
2018-03-28T00:36:38.955Z,69739.77
2018-03-28T00:39:07.304Z,69736.61
2018-03-28T00:41:35.622Z,69743.66
2018-03-28T00:44:03.962Z,69740.14
2018-03-28T00:46:32.283Z,69740.38
2018-03-28T00:49:00.627Z,69734.02
2018-03-28T00:51:36.750Z,69726.08
2018-03-28T00:54:05.096Z,69713.74
2018-03-28T00:56:33.487Z,69726.39
2018-03-28T00:59:01.831Z,69733.82
2018-03-28T01:01:30.158Z,69731.31
2018-03-28T01:03:58.497Z,69721.86
2018-03-28T01:06:26.818Z,69728.99
2018-03-28T01:08:55.162Z,69728.81
2018-03-28T01:11:23.481Z,69727.78
2018-03-28T01:13:51.821Z,69737.54
2018-03-28T01:16:20.158Z,69728.61
2018-03-28T01:18:48.462Z,69731.59
2018-03-28T01:21:16.807Z,69723.78
2018-03-28T01:23:45.121Z,69735.23
2018-03-28T01:26:13.461Z,69734.63
2018-03-28T01:28:41.775Z,69737.64
2018-03-28T01:31:10.122Z,69739.74
2018-03-28T01:33:38.442Z,69745.08
2018-03-28T01:36:06.782Z,69746.67
2018-03-28T01:38:35.144Z,69754.72
2018-03-28T01:41:03.466Z,69749.00
2018-03-28T01:43:31.790Z,69846.73
2018-03-28T01:46:00.139Z,69797.98
2018-03-28T01:48:28.462Z,69784.39
2018-03-28T01:50:56.813Z,69786.59
2018-03-28T01:53:25.139Z,69783.50
2018-03-28T01:55:53.490Z,69780.88
2018-03-28T01:58:21.813Z,69778.14
2018-03-28T02:00:50.162Z,69785.09
2018-03-28T02:03:18.485Z,69784.89
2018-03-28T02:05:46.833Z,69780.95
2018-03-28T02:08:15.161Z,69781.56
2018-03-28T02:10:43.515Z,69786.41
2018-03-28T02:13:11.842Z,69785.88
2018-03-28T02:15:40.194Z,69787.66
2018-03-28T02:18:08.523Z,69785.02
2018-03-28T02:20:36.875Z,69784.29
2018-03-28T02:23:05.198Z,69789.20
2018-03-28T02:25:33.559Z,69795.34
2018-03-28T02:28:01.892Z,69790.36
2018-03-28T02:30:30.239Z,69759.85
2018-03-28T02:32:58.562Z,69745.08
2018-03-28T02:35:26.902Z,69740.09
2018-03-28T02:37:55.222Z,69732.71
2018-03-28T02:40:23.571Z,69742.47
2018-03-28T02:42:51.900Z,69747.28
2018-03-28T02:45:20.229Z,69760.48
2018-03-28T02:47:48.550Z,69764.41
2018-03-28T02:50:16.895Z,69761.06
2018-03-28T02:52:45.214Z,69758.94
2018-03-28T02:55:13.559Z,69759.45
2018-03-28T02:57:41.885Z,69753.52
2018-03-28T03:00:10.230Z,69750.31
2018-03-28T03:02:38.550Z,69751.53
2018-03-28T03:05:06.898Z,69748.39
2018-03-28T03:07:35.214Z,69750.59
2018-03-28T03:10:03.550Z,69750.62
2018-03-28T03:12:31.890Z,69735.02
2018-03-28T03:15:00.226Z,69716.34
2018-03-28T03:17:28.565Z,69710.83
2018-03-28T03:19:56.888Z,69705.07
2018-03-28T03:22:25.231Z,69710.43
2018-03-28T03:24:53.551Z,69714.94
2018-03-28T03:27:21.889Z,69717.13
2018-03-28T03:29:50.210Z,69724.39
2018-03-28T03:32:18.554Z,69705.39
2018-03-28T03:34:46.878Z,69696.05
2018-03-28T03:37:15.218Z,69681.69
2018-03-28T03:39:43.538Z,69697.16
2018-03-28T03:42:11.874Z,69692.42
2018-03-28T03:44:40.198Z,69705.30
2018-03-28T03:47:08.545Z,69712.34
2018-03-28T03:49:36.867Z,69703.91
2018-03-28T03:52:05.214Z,69693.16
2018-03-28T03:54:33.529Z,69696.45
2018-03-28T03:57:01.880Z,69699.68
2018-03-28T03:59:30.198Z,69691.82
2018-03-28T04:01:58.542Z,69678.30
2018-03-28T04:04:26.865Z,69674.25
2018-03-28T04:06:55.218Z,69684.61
2018-03-28T04:09:23.536Z,69677.77
2018-03-28T04:11:51.880Z,69673.95
2018-03-28T04:14:20.202Z,69664.22
2018-03-28T04:16:48.542Z,69666.34
2018-03-28T04:19:16.862Z,69673.97
2018-03-28T04:21:45.202Z,69678.78
2018-03-28T04:24:13.522Z,69682.39
2018-03-28T04:26:41.861Z,69678.09
2018-03-28T04:29:10.181Z,69679.28
2018-03-28T04:31:38.531Z,69668.94
2018-03-28T04:34:06.846Z,69679.61
2018-03-28T04:36:35.194Z,69676.25
2018-03-28T04:39:03.510Z,69675.77
2018-03-28T04:41:31.853Z,69681.17
2018-03-28T04:44:00.174Z,69679.30
2018-03-28T04:46:28.518Z,69675.99
2018-03-28T04:48:56.839Z,69679.78
2018-03-28T04:51:25.173Z,69677.38
2018-03-28T04:53:53.490Z,69671.84
2018-03-28T04:56:21.829Z,69664.02
2018-03-28T04:58:50.149Z,69660.91
2018-03-28T05:01:18.493Z,69661.91
2018-03-28T05:03:46.810Z,69662.11
2018-03-28T05:06:15.150Z,69662.09
2018-03-28T05:08:43.472Z,69668.72
2018-03-28T05:11:11.813Z,69680.49
2018-03-28T05:13:40.134Z,69678.59
2018-03-28T05:16:08.473Z,69683.63
2018-03-28T05:18:36.814Z,69682.21
2018-03-28T05:21:05.133Z,69676.38
2018-03-28T05:23:33.491Z,69669.24
2018-03-28T05:26:02.106Z,69669.02
2018-03-28T05:28:31.622Z,69668.44
2018-03-28T05:31:00.007Z,69667.14
2018-03-28T05:33:28.350Z,69673.95
2018-03-28T05:35:56.677Z,69643.62
2018-03-28T05:38:25.019Z,69641.09
2018-03-28T05:40:53.339Z,69640.71
2018-03-28T05:43:21.696Z,69640.86
2018-03-28T05:45:50.010Z,69651.88
2018-03-28T05:48:18.354Z,69659.92
2018-03-28T05:50:46.680Z,69638.52
2018-03-28T05:53:15.053Z,69647.33
2018-03-28T05:55:43.600Z,69653.80
2018-03-28T05:58:12.023Z,69624.16
2018-03-28T06:00:40.350Z,69629.39
2018-03-28T06:03:08.694Z,69618.34
2018-03-28T06:05:37.022Z,69639.02
2018-03-28T06:08:05.914Z,69651.38
2018-03-28T06:10:34.254Z,69665.63
2018-03-28T06:13:02.665Z,69651.68
2018-03-28T06:15:30.930Z,69633.38
2018-03-28T06:17:59.278Z,69648.34
2018-03-28T06:20:27.674Z,69630.20
2018-03-28T06:22:56.014Z,69621.95
2018-03-28T06:25:24.390Z,69643.44
2018-03-28T06:27:52.735Z,69643.84
2018-03-28T06:30:21.449Z,69648.16
2018-03-28T06:32:49.870Z,69662.09
2018-03-28T06:35:18.627Z,69676.78
2018-03-28T06:37:47.015Z,69665.30
2018-03-28T06:40:16.198Z,69656.09
2018-03-28T06:42:44.542Z,69665.23
2018-03-28T06:45:12.866Z,69667.13
2018-03-28T06:47:41.214Z,69673.55
2018-03-28T06:50:09.546Z,69669.05
2018-03-28T06:52:37.893Z,69664.92
2018-03-28T06:55:06.224Z,69663.71
2018-03-28T06:57:34.559Z,69636.52
2018-03-28T07:00:02.886Z,69643.64
2018-03-28T07:02:31.245Z,69648.45
2018-03-28T07:04:59.570Z,69655.49
2018-03-28T07:07:28.086Z,69652.59
2018-03-28T07:09:56.451Z,69655.47
2018-03-28T07:12:25.152Z,69643.09
2018-03-28T07:14:53.473Z,69640.43
2018-03-28T07:17:21.814Z,69646.73
2018-03-28T07:19:50.138Z,69666.34
2018-03-28T07:22:18.462Z,69671.34
2018-03-28T07:24:46.806Z,69656.98
2018-03-28T07:27:15.129Z,69669.14
2018-03-28T07:29:43.474Z,69672.45
2018-03-28T07:32:11.793Z,69679.58
2018-03-28T07:34:40.134Z,69678.17
2018-03-28T07:37:08.455Z,69681.38
2018-03-28T07:39:36.802Z,69690.02
2018-03-28T07:42:05.125Z,69699.08
2018-03-28T07:44:33.463Z,69692.05
2018-03-28T07:47:01.782Z,69694.83
2018-03-28T07:49:30.126Z,69702.28
2018-03-28T07:51:58.449Z,69714.45
2018-03-28T07:54:26.791Z,69711.54
2018-03-28T07:56:55.116Z,69710.53
2018-03-28T07:59:23.463Z,69715.23
2018-03-28T08:01:51.786Z,69726.89
2018-03-28T08:04:20.122Z,69721.36
2018-03-28T08:06:48.446Z,69714.83
2018-03-28T08:09:16.790Z,69735.27
2018-03-28T08:11:45.114Z,69742.19
2018-03-28T08:14:13.457Z,69738.63
2018-03-28T08:16:41.785Z,69743.38
2018-03-28T08:19:10.172Z,69746.19
2018-03-28T08:21:38.457Z,69749.50
2018-03-28T08:24:06.806Z,69750.21
2018-03-28T08:26:35.126Z,69755.45
2018-03-28T08:29:03.467Z,69752.52
2018-03-28T08:31:31.790Z,69751.00
2018-03-28T08:34:00.134Z,69759.16
2018-03-28T08:36:28.456Z,69752.92
2018-03-28T08:38:56.806Z,69756.86
2018-03-28T08:41:25.135Z,69747.08
2018-03-28T08:43:54.290Z,69755.45
2018-03-28T08:46:23.591Z,69759.55
2018-03-28T08:48:51.938Z,69758.08
2018-03-28T08:51:20.259Z,69754.92
2018-03-28T08:53:48.602Z,69764.17
2018-03-28T08:56:17.957Z,69764.38
2018-03-28T08:58:46.303Z,69760.25
2018-03-28T09:01:14.626Z,69752.81
2018-03-28T09:03:42.973Z,69756.21
2018-03-28T09:06:11.366Z,69763.88
2018-03-28T09:08:39.707Z,69761.67
2018-03-28T09:11:08.026Z,69755.55
2018-03-28T09:13:36.370Z,69763.37
2018-03-28T09:16:04.694Z,69758.53
2018-03-28T09:18:33.055Z,69775.16
2018-03-28T09:21:01.377Z,69769.48
2018-03-28T09:23:29.749Z,69768.08
2018-03-28T09:25:58.118Z,69777.16
2018-03-28T09:28:26.442Z,69769.48
2018-03-28T09:30:54.785Z,69760.45
2018-03-28T09:33:23.111Z,69773.84
2018-03-28T09:35:51.640Z,69782.39
2018-03-28T09:38:19.958Z,69790.94
2018-03-28T09:40:48.327Z,69795.34
2018-03-28T09:43:17.179Z,69799.59
2018-03-28T09:45:45.534Z,69797.57
2018-03-28T09:48:13.934Z,69807.41
2018-03-28T09:50:42.291Z,69815.09
2018-03-28T09:53:10.622Z,69818.20
2018-03-28T09:55:39.141Z,69812.95
2018-03-28T09:58:07.625Z,69814.27
2018-03-28T10:00:35.982Z,69812.66
2018-03-28T10:03:09.970Z,69817.59
2018-03-28T10:05:39.157Z,69823.01
2018-03-28T10:08:08.318Z,69825.91
2018-03-28T10:10:36.685Z,69805.98
2018-03-28T10:13:05.019Z,69803.90
2018-03-28T10:15:33.366Z,69816.75
2018-03-28T10:18:01.768Z,69833.69
2018-03-28T10:20:30.051Z,69838.63
2018-03-28T10:22:58.382Z,69851.16
2018-03-28T10:25:26.722Z,69864.65
2018-03-28T10:27:55.059Z,69880.93
2018-03-28T10:30:23.414Z,69902.89
2018-03-28T10:32:51.762Z,69908.19
2018-03-28T10:35:20.094Z,69924.52
2018-03-28T10:37:48.425Z,69936.15
2018-03-28T10:40:16.783Z,69942.71
2018-03-28T10:42:45.121Z,69951.70
2018-03-28T10:45:13.474Z,70057.43
2018-03-28T10:47:41.802Z,70035.47
2018-03-28T10:50:10.145Z,70085.73
2018-03-28T10:52:38.482Z,70108.66
2018-03-28T10:55:06.836Z,70077.49
2018-03-28T10:57:35.170Z,70058.34
2018-03-28T11:00:03.513Z,70035.30
2018-03-28T11:02:31.847Z,70011.41
2018-03-28T11:05:00.202Z,69996.00
2018-03-28T11:07:28.530Z,70001.52
2018-03-28T11:09:56.878Z,70010.02
2018-03-28T11:12:25.215Z,69997.93
2018-03-28T11:14:53.570Z,69997.66
2018-03-28T11:17:21.908Z,69999.63
2018-03-28T11:19:50.263Z,70001.66
2018-03-28T11:22:18.594Z,70006.47
2018-03-28T11:24:46.938Z,70019.65
2018-03-28T11:27:15.275Z,70028.05
2018-03-28T11:29:43.626Z,70045.97
2018-03-28T11:32:11.949Z,70059.97
2018-03-28T11:34:40.288Z,70050.05
2018-03-28T11:37:08.638Z,70060.78
2018-03-28T11:39:36.971Z,70073.73
2018-03-28T11:42:05.317Z,70081.13
2018-03-28T11:44:33.647Z,70090.89
2018-03-28T11:47:01.995Z,70093.70
2018-03-28T11:49:30.325Z,70107.33
2018-03-28T11:51:58.695Z,70120.11
2018-03-28T11:54:27.021Z,70120.63
2018-03-28T11:56:55.376Z,70122.15
2018-03-28T11:59:23.707Z,70132.63
2018-03-28T12:01:52.051Z,70126.77
2018-03-28T12:04:20.641Z,70120.31
2018-03-28T12:06:48.989Z,70122.95
2018-03-28T12:09:17.318Z,70126.77
2018-03-28T12:11:45.670Z,70125.27
2018-03-28T12:14:14.041Z,70137.98
2018-03-28T12:16:42.369Z,70156.55
2018-03-28T12:19:10.701Z,70154.32
2018-03-28T12:21:39.055Z,70156.25
2018-03-28T12:24:07.383Z,70155.61
2018-03-28T12:26:35.734Z,70149.41
2018-03-28T12:29:04.081Z,70150.48
2018-03-28T12:31:32.418Z,70151.91
2018-03-28T12:34:00.747Z,70148.28
2018-03-28T12:36:29.095Z,70152.49
2018-03-28T12:38:57.425Z,70153.41
2018-03-28T12:41:25.774Z,70150.01
2018-03-28T12:43:54.102Z,70132.70
2018-03-28T12:46:22.450Z,70142.00
2018-03-28T12:48:50.778Z,70146.79
2018-03-28T12:51:19.130Z,70144.86
2018-03-28T12:53:47.470Z,70160.36
2018-03-28T12:56:15.837Z,70176.88
2018-03-28T12:58:44.173Z,70188.01
2018-03-28T13:01:12.578Z,70180.75
2018-03-28T13:03:40.898Z,70179.32
2018-03-28T13:06:09.246Z,70181.84
2018-03-28T13:08:37.582Z,70174.88
2018-03-28T13:11:05.936Z,70184.07
2018-03-28T13:13:34.258Z,70181.55
2018-03-28T13:16:02.613Z,70185.77
2018-03-28T13:18:30.943Z,70186.20
2018-03-28T13:20:59.304Z,70187.09
2018-03-28T13:23:27.642Z,70191.13
2018-03-28T13:25:55.998Z,70203.64
2018-03-28T13:28:24.330Z,70212.00
2018-03-28T13:30:52.682Z,70210.09
2018-03-28T13:33:21.012Z,70193.16
2018-03-28T13:35:49.339Z,70200.53
2018-03-28T13:38:17.687Z,70204.43
2018-03-28T13:40:46.507Z,70207.45
2018-03-28T13:43:14.854Z,70211.49
2018-03-28T13:45:43.192Z,70209.19
2018-03-28T13:48:11.542Z,70187.77
2018-03-28T13:50:39.886Z,70178.33
2018-03-28T13:53:08.230Z,70153.10
2018-03-28T13:55:36.866Z,70139.80
2018-03-28T13:58:05.218Z,70131.30
2018-03-28T14:00:33.548Z,70124.05
2018-03-28T14:03:01.900Z,70095.81
2018-03-28T14:05:30.230Z,70080.59
2018-03-28T14:07:58.576Z,70078.58
2018-03-28T14:10:26.911Z,70070.45
2018-03-28T14:12:55.262Z,70072.34
2018-03-28T14:15:23.589Z,70062.41
2018-03-28T14:17:51.933Z,70061.70
2018-03-28T14:20:20.267Z,70060.68
2018-03-28T14:22:48.618Z,70062.68
2018-03-28T14:25:16.961Z,70082.75
2018-03-28T14:27:45.298Z,70078.41
2018-03-28T14:30:13.637Z,70081.23
2018-03-28T14:32:41.982Z,70087.16
2018-03-28T14:35:10.310Z,70079.09
2018-03-28T14:37:38.687Z,70073.66
2018-03-28T14:40:07.010Z,70065.42
2018-03-28T14:42:35.937Z,70063.39
2018-03-28T14:45:04.249Z,70064.11
2018-03-28T14:47:32.626Z,70054.92
2018-03-28T14:50:01.130Z,70131.00
2018-03-28T14:52:29.689Z,70113.97
2018-03-28T14:54:58.069Z,70102.52
2018-03-28T14:57:26.412Z,70108.72
2018-03-28T14:59:54.837Z,70109.94
2018-03-28T15:02:23.211Z,70108.45
2018-03-28T15:04:51.563Z,70104.81
2018-03-28T15:07:19.982Z,70096.92
2018-03-28T15:09:48.351Z,70092.31
2018-03-28T15:12:16.745Z,70087.05
2018-03-28T15:14:45.081Z,70094.64
2018-03-28T15:17:13.744Z,70102.58
2018-03-28T15:19:42.170Z,70105.63
2018-03-28T15:22:10.617Z,70141.61
2018-03-28T15:24:38.989Z,70128.48
2018-03-28T15:27:08.349Z,70108.02
2018-03-28T15:29:36.710Z,70096.95
2018-03-28T15:32:05.086Z,70081.83
2018-03-28T15:34:33.542Z,70064.61
2018-03-28T15:37:01.943Z,70051.60
2018-03-28T15:39:30.397Z,70053.00
2018-03-28T15:41:58.704Z,70049.50
2018-03-28T15:44:27.046Z,70042.52
2018-03-28T15:46:55.503Z,70034.96
2018-03-28T15:49:23.938Z,70044.32
2018-03-28T15:51:52.288Z,70036.48
2018-03-28T15:54:20.695Z,70038.42
2018-03-28T15:56:49.962Z,70039.78
2018-03-28T15:59:18.927Z,70056.63
2018-03-28T16:01:47.600Z,70064.08
2018-03-28T16:04:16.714Z,70060.14
2018-03-28T16:06:45.443Z,70062.17
2018-03-28T16:09:14.678Z,70065.59
2018-03-28T16:11:43.434Z,70061.29
2018-03-28T16:14:13.334Z,70060.55
2018-03-28T16:16:41.974Z,70048.89
2018-03-28T16:19:10.714Z,70024.52
2018-03-28T16:21:39.521Z,70023.00
2018-03-28T16:24:08.363Z,70018.87
2018-03-28T16:26:37.022Z,70007.18
2018-03-28T16:29:05.731Z,69994.28
2018-03-28T16:31:35.238Z,69970.70
2018-03-28T16:34:03.922Z,69965.48
2018-03-28T16:36:33.148Z,69947.11
2018-03-28T16:39:01.816Z,69953.78
2018-03-28T16:41:30.546Z,69924.19
2018-03-28T16:43:59.207Z,69916.54
2018-03-28T16:46:28.366Z,69925.61
2018-03-28T16:48:57.659Z,69925.61
2018-03-28T16:51:26.295Z,69900.73
2018-03-28T16:53:55.093Z,69895.04
2018-03-28T16:56:23.777Z,69885.36
2018-03-28T16:58:53.423Z,69874.80
2018-03-28T17:01:22.135Z,69859.52
2018-03-28T17:03:50.822Z,69855.79
2018-03-28T17:06:19.494Z,69851.66
2018-03-28T17:08:47.895Z,69837.86
2018-03-28T17:11:16.234Z,69832.85
2018-03-28T17:13:44.566Z,69805.29
2018-03-28T17:16:12.926Z,69797.88
2018-03-28T17:18:41.247Z,69792.13
2018-03-28T17:21:09.594Z,69784.48
2018-03-28T17:23:37.918Z,69771.80
2018-03-28T17:26:06.266Z,69771.72
2018-03-28T17:28:34.603Z,69770.70
2018-03-28T17:31:02.958Z,69766.48
2018-03-28T17:33:31.286Z,69764.69
2018-03-28T17:35:59.634Z,69754.84
2018-03-28T17:38:27.977Z,69740.75
2018-03-28T17:40:56.311Z,69730.41
2018-03-28T17:43:24.649Z,69725.38
2018-03-28T17:45:52.970Z,69726.91
2018-03-28T17:48:21.314Z,69714.73
2018-03-28T17:50:49.641Z,69714.33
2018-03-28T17:53:17.991Z,69714.94
2018-03-28T17:55:46.310Z,69718.14
2018-03-28T17:58:14.654Z,69714.33
2018-03-28T18:00:43.206Z,69704.20
2018-03-28T18:03:11.554Z,69704.99
2018-03-28T18:05:39.884Z,69699.28
2018-03-28T18:08:08.226Z,69695.26
2018-03-28T18:10:36.549Z,69701.17
2018-03-28T18:13:04.898Z,69704.79
2018-03-28T18:15:33.222Z,69694.53
2018-03-28T18:18:01.568Z,69691.31
2018-03-28T18:20:30.818Z,69679.69
2018-03-28T18:22:59.167Z,69676.66
2018-03-28T18:25:27.490Z,69738.45
2018-03-28T18:27:55.833Z,69878.86
2018-03-28T18:30:24.165Z,69876.52
2018-03-28T18:32:52.518Z,69817.16
2018-03-28T18:35:20.852Z,69780.39
2018-03-28T18:37:49.199Z,69745.86
2018-03-28T18:40:17.514Z,69727.68
2018-03-28T18:42:45.874Z,69726.99
2018-03-28T18:45:14.191Z,69703.68
2018-03-28T18:47:42.517Z,69698.37
2018-03-28T18:50:10.858Z,69699.28
2018-03-28T18:52:39.187Z,69698.16
2018-03-28T18:55:07.526Z,69693.54
2018-03-28T18:57:35.854Z,69691.82
2018-03-28T19:00:04.199Z,69694.05
2018-03-28T19:02:32.528Z,69704.91
2018-03-28T19:05:01.681Z,69697.73
2018-03-28T19:07:30.001Z,69722.29
2018-03-28T19:09:58.350Z,69731.92
2018-03-28T19:12:26.681Z,69730.61
2018-03-28T19:14:55.044Z,69719.84
2018-03-28T19:17:23.349Z,69721.76
2018-03-28T19:19:51.696Z,69710.30
2018-03-28T19:22:20.021Z,69706.79
2018-03-28T19:24:48.366Z,69702.59
2018-03-28T19:27:16.686Z,69699.36
2018-03-28T19:29:45.034Z,69701.58
2018-03-28T19:32:13.354Z,69711.52
2018-03-28T19:34:41.714Z,69719.16
2018-03-28T19:37:10.037Z,69718.37
2018-03-28T19:39:38.381Z,69705.68
2018-03-28T19:42:06.706Z,69710.70
2018-03-28T19:44:35.058Z,69710.70
2018-03-28T19:47:03.378Z,69711.44
2018-03-28T19:49:31.722Z,69697.45
2018-03-28T19:52:00.042Z,69695.46
2018-03-28T19:54:28.381Z,69695.16
2018-03-28T19:56:56.705Z,69689.70
2018-03-28T19:59:25.051Z,69679.48
2018-03-28T20:01:53.398Z,69671.45
2018-03-28T20:06:56.378Z,69675.87
2018-03-28T20:09:24.719Z,69667.61
2018-03-28T20:11:53.043Z,69669.75
2018-03-28T20:14:21.389Z,69677.87
2018-03-28T20:16:49.714Z,69678.19
2018-03-28T20:19:18.062Z,69678.59
2018-03-28T20:21:46.377Z,69679.46
2018-03-28T20:24:14.719Z,69693.05
2018-03-28T20:26:43.041Z,69696.45
2018-03-28T20:29:11.385Z,69703.22
2018-03-28T20:31:39.714Z,69695.77
2018-03-28T20:34:08.058Z,69693.03
2018-03-28T20:36:36.386Z,69703.17
2018-03-28T20:39:04.730Z,69694.93
2018-03-28T20:41:33.050Z,69701.05
2018-03-28T20:44:01.647Z,69705.98
2018-03-28T20:46:30.097Z,69710.30
2018-03-28T20:48:58.446Z,69714.94
2018-03-28T20:51:26.773Z,69706.51
2018-03-28T20:53:55.790Z,69711.62
2018-03-28T20:56:24.270Z,69714.94
2018-03-28T20:58:52.834Z,69719.45
2018-03-28T21:01:21.408Z,69704.89
2018-03-28T21:03:49.852Z,69712.14
2018-03-28T21:06:18.411Z,69696.53
2018-03-28T21:08:46.730Z,69684.20
2018-03-28T21:11:15.098Z,69690.53
2018-03-28T21:13:43.445Z,69703.88
2018-03-28T21:16:12.374Z,69707.30
2018-03-28T21:18:40.694Z,69699.84
2018-03-28T21:21:09.037Z,69701.60
2018-03-28T21:23:37.363Z,69684.20
2018-03-28T21:26:05.710Z,69679.66
2018-03-28T21:28:34.073Z,69663.94
2018-03-28T21:31:02.394Z,69653.17
2018-03-28T21:33:30.715Z,69638.72
2018-03-28T21:35:59.062Z,69650.24
2018-03-28T21:38:27.382Z,69657.70
2018-03-28T21:40:55.739Z,69650.77
2018-03-28T21:43:24.055Z,69653.86
2018-03-28T21:45:52.402Z,69658.09
2018-03-28T21:48:20.732Z,69670.94
2018-03-28T21:50:49.082Z,69678.30
2018-03-28T21:53:17.410Z,69693.05
2018-03-28T21:55:45.749Z,69701.40
2018-03-28T21:58:14.072Z,69695.03
2018-03-28T22:00:42.423Z,69696.14
2018-03-28T22:03:10.762Z,69692.33
2018-03-28T22:05:39.242Z,69671.45
2018-03-28T22:08:07.550Z,69673.23
2018-03-28T22:10:35.901Z,69676.47
2018-03-28T22:13:04.221Z,69679.18
2018-03-28T22:15:32.562Z,69690.66
2018-03-28T22:18:00.887Z,69685.52
2018-03-28T22:20:29.232Z,69687.84
2018-03-28T22:22:57.553Z,69680.17
2018-03-28T22:25:25.902Z,69667.02
2018-03-28T22:27:54.226Z,69666.34
2018-03-28T22:30:22.566Z,69654.08
2018-03-28T22:32:50.890Z,69638.23
2018-03-28T22:35:19.431Z,69630.40
2018-03-28T22:37:47.742Z,69611.83
2018-03-28T22:40:16.084Z,69600.28
2018-03-28T22:42:44.402Z,69594.95
2018-03-28T22:45:12.760Z,69581.31
2018-03-28T22:47:41.087Z,69565.95
2018-03-28T22:50:09.408Z,69549.57
2018-03-28T22:52:37.763Z,69534.34
2018-03-28T22:55:06.938Z,69519.50
2018-03-28T22:57:35.286Z,69510.84
2018-03-28T23:00:03.615Z,69509.06
2018-03-28T23:02:31.681Z,69504.34
2018-03-28T23:05:00.005Z,69487.99
2018-03-28T23:07:28.350Z,69475.17
2018-03-28T23:09:56.686Z,69470.64
2018-03-28T23:12:25.034Z,69471.47
2018-03-28T23:14:53.749Z,69469.14
2018-03-28T23:17:22.091Z,69459.23
2018-03-28T23:19:50.407Z,69456.81
2018-03-28T23:22:30.506Z,69455.22
2018-03-28T23:24:58.826Z,69448.80
2018-03-28T23:27:27.166Z,69455.22
2018-03-28T23:29:55.486Z,69445.08
2018-03-28T23:32:23.822Z,69456.83
2018-03-28T23:34:52.159Z,69459.42
2018-03-28T23:37:20.504Z,69442.38
2018-03-28T23:39:48.836Z,69441.59
2018-03-28T23:42:17.202Z,69439.76
2018-03-28T23:44:45.496Z,69448.52
2018-03-28T23:47:14.782Z,69419.41
2018-03-28T23:49:43.096Z,69427.77
2018-03-28T23:52:11.422Z,69412.31
2018-03-28T23:54:39.730Z,69421.36
2018-03-28T23:57:08.062Z,69415.44
2018-03-28T23:59:36.370Z,69424.17
